Forside
METAR-TAF:

METAR-TAF

Lufthavne :

Flyvestation

Shizuhama, Japan

Breddekreds: 34-49N, længdekreds: 138-18E, højde: 7 m

Aktuelle vejr

Denne rapport blev lavet for 49 minutter siden, kl. 00:47 UTC
Vind 22 kt fra sydvest med vindstød på up til 32 kt
Temperatur 27°C
Fugtighed 89%
Tryk 1006 hPa
Sigt 10 km eller mere
Nogle få skyer i en højde af 600 ft
Brudte skyer i en højde af 1200 ft
Brudte skyer i en højde af 8000 ft

METAR: RJNY 040047Z 23022G32KT 9999 FEW006 BKN012 BKN080 27/25 Q1006 RMK 1ST006 7CU012 7AC080 A2971

Tid: 10:36 (01:36 UTC)


TAF: fraværende

Vejrobservationer og prognoser fra mere end 4000 lufthavne (METAR og TAF).

De gule og røde prikker repræsenterer de meteorologiske stationer.

Flyt musen over at se navnet på stationen.

Så klik over at se vejr observationer og prognoser.

At skifte det kort: Klik på de grønne knapper med et sort kors for at zoome ind; på den grønne knap med en bindestreg for at zoome ud; eller på de grønne pile for tilstødende kort.


METAR-TAF: